Ana Sayfa
METAR-TAF:

METAR-TAF

Havaalanları :

Chautauqua County/Dunkirk Airport

Dunkirk, New York, Amerika Birleşik Devletleri

Enlem: 42-29-35N, Boylam: 079-16-33W, yükseklik: 211 m

Güncel hava durumu gözlemi

Rapor saat 09:53 UTC de 25 dakika önce yapıldı.
Rüzgar güneybatıdan 5 kt
Sıcaklık -1°C
Nem 86%
Basınç 1022 hPa
Görüş mesafesi: 8.0 km
1000 ft yükseklikte az bulutlu
1800 ft yükseklikte parçalı çok bulutlu
Pus

METAR: KDKK 170953Z AUTO 23005KT 5SM BR FEW010 BKN018 M01/M03 A3018 RMK AO2 SLP228 T10061028

Saat: 05:18 (10:18 UTC)


TAF: eksik

4.000'den fazla havaalanı için hava durumu gözlemleri ve tahminleri (METAR ve TAF raporları).

Kullanılabilir istasyonlar harita üzerinde sarı ve kırmızı noktalarla gösterilir.

İstasyonun adını görmek için fareyi noktanın üzerinde gezdirin.

Sonrasında hava gözlem ve tahminlerini görmek için tıklayın.

Haritayı değiştirmek için: yaklaştırmak için siyah artı işaretli yeşil düğmeye ve uzaklaştırmak için de eksi işaretli düğmeye hızla tıklayın; bitişik haritalar için yeşil okları kullanın.


METAR-TAF: